Archival Weather

Salzburg

Salzburg, Austria (LOWS)

Report from: Friday, May 26, 2023 10:50 AM CEST
Current time: Sunday, October 1, 2023 4:08 AM CEST

Current weather
Weather history
Weather forecast

Temperature19.0°C (66.2°F)
Dew point14.0°C (57.2°F)
Winds 3 kts (1.5 m/s, 3.5 mph) Vrb
Winds variableWinds variable
Visibility6.2 mi. (10 km)
Clouds Scattered clouds 6,000 ft. (1,829 m)
Altimeter30.21 in.Hg (1023 mB)
Relative humidity73 %
Density altitude363 ft. (111 m)
Remarks Fully automated report
No significant changes expected in the next two hours
Flight conditions Visual Meteorological Conditions
Raw dataLOWS 260850Z AUTO VRB03KT 9999 SCT060 19/14 Q1023 NOSIG
An error has occurred. This application may no longer respond until reloaded. Reload 🗙